Time;durP1;ratioP1;P1;durP2;ratioP2;P2;SDS_P1;SDS_P2;PMS_P1;PMS_P2;Temp;Humidity;BMP_temperature;BMP_pressure;BME280_temperature;BME280_humidity;BME280_pressure;Samples;Min_cycle;Max_cycle;Signal;HPM_P1;HPM_P2
2021/09/04 00:02:05;;;;;;;10.10;9.13;;;;;;;;;;5033949;28;20021;-73
2021/09/04 00:04:30;;;;;;;13.50;9.90;;;;;;;;;;5034370;28;20053;-72
2021/09/04 00:06:55;;;;;;;9.80;8.80;;;;;;;;;;5024866;28;20026;-73
2021/09/04 00:09:20;;;;;;;11.07;8.88;;;;;;;;;;5014686;28;20040;-72
2021/09/04 00:11:45;;;;;;;10.02;8.98;;;;;;;;;;5014617;28;20022;-72
2021/09/04 00:14:11;;;;;;;12.57;9.27;;;;;;;;;;5014696;28;20637;-72
2021/09/04 00:16:36;;;;;;;13.52;9.60;;;;;;;;;;5029106;28;20028;-73
2021/09/04 00:19:04;;;;;;;12.93;8.97;;;;;;;;;;5034044;28;20025;-73
2021/09/04 00:21:29;;;;;;;10.48;9.40;;;;;;;;;;5033495;28;20614;-72
2021/09/04 00:23:56;;;;;;;12.50;9.50;;;;;;;;;;5034093;28;20017;-72
2021/09/04 00:26:27;;;;;;;10.38;8.95;;;;;;;;;;5034017;28;20042;-72
2021/09/04 00:28:52;;;;;;;11.60;9.73;;;;;;;;;;5033543;28;20087;-73
2021/09/04 00:31:18;;;;;;;14.27;9.93;;;;;;;;;;5033722;28;20013;-72
2021/09/04 00:33:45;;;;;;;13.50;10.00;;;;;;;;;;5033316;28;20648;-72
2021/09/04 00:36:13;;;;;;;14.52;9.35;;;;;;;;;;5033876;28;20291;-72
2021/09/04 00:38:38;;;;;;;11.25;9.00;;;;;;;;;;5033917;28;20025;-73
2021/09/04 00:41:06;;;;;;;12.43;9.68;;;;;;;;;;5033171;28;20033;-72
2021/09/04 00:43:31;;;;;;;11.43;9.13;;;;;;;;;;5033885;28;20024;-73
2021/09/04 00:46:09;;;;;;;10.98;9.52;;;;;;;;;;5033311;28;20037;-74
2021/09/04 00:48:37;;;;;;;12.10;9.32;;;;;;;;;;5034006;28;20025;-72
2021/09/04 00:51:05;;;;;;;12.68;9.38;;;;;;;;;;5014308;28;20455;-72
2021/09/04 00:53:30;;;;;;;13.52;9.38;;;;;;;;;;5013870;28;20022;-72
2021/09/04 00:55:56;;;;;;;11.75;8.75;;;;;;;;;;5016012;28;20343;-73
2021/09/04 00:58:22;;;;;;;12.95;8.98;;;;;;;;;;5033393;28;20021;-73
2021/09/04 01:00:54;;;;;;;11.23;8.82;;;;;;;;;;5016257;28;20026;-73
2021/09/04 01:03:19;;;;;;;13.63;9.38;;;;;;;;;;5033601;28;20109;-73
2021/09/04 01:05:48;;;;;;;12.18;9.75;;;;;;;;;;5033437;28;20010;-74
2021/09/04 01:08:18;;;;;;;10.35;8.43;;;;;;;;;;5033593;28;20103;-73
2021/09/04 01:10:45;;;;;;;12.55;8.93;;;;;;;;;;5033700;28;20025;-73
2021/09/04 01:13:11;;;;;;;11.05;8.93;;;;;;;;;;5032799;28;20032;-73
2021/09/04 01:15:36;;;;;;;13.68;9.43;;;;;;;;;;5033299;28;20021;-73
2021/09/04 01:18:04;;;;;;;12.82;9.43;;;;;;;;;;5032746;28;20045;-74
2021/09/04 01:20:30;;;;;;;12.45;9.40;;;;;;;;;;5030937;28;20552;-73
2021/09/04 01:22:58;;;;;;;12.65;9.40;;;;;;;;;;5032560;28;20029;-72
2021/09/04 01:25:25;;;;;;;15.88;9.30;;;;;;;;;;5032161;28;20069;-74
2021/09/04 01:27:51;;;;;;;15.07;9.20;;;;;;;;;;5033603;28;20087;-73
2021/09/04 01:30:18;;;;;;;12.43;9.23;;;;;;;;;;5031770;28;20025;-72
2021/09/04 01:32:43;;;;;;;12.90;9.82;;;;;;;;;;5033110;28;20018;-74
2021/09/04 01:35:12;;;;;;;12.07;9.70;;;;;;;;;;5026320;28;20014;-73
2021/09/04 01:37:37;;;;;;;12.95;9.70;;;;;;;;;;5013484;28;20064;-73
2021/09/04 01:40:07;;;;;;;10.75;9.65;;;;;;;;;;5023717;28;20045;-74
2021/09/04 01:42:32;;;;;;;13.70;9.25;;;;;;;;;;5033343;28;20067;-73
2021/09/04 01:44:57;;;;;;;13.33;9.90;;;;;;;;;;5035231;28;20395;-72
2021/09/04 01:47:24;;;;;;;12.07;9.93;;;;;;;;;;5037021;28;20295;-74
2021/09/04 01:49:52;;;;;;;14.20;9.88;;;;;;;;;;5037029;28;20256;-73
2021/09/04 01:52:17;;;;;;;15.00;10.30;;;;;;;;;;5037127;28;20048;-73
2021/09/04 01:54:42;;;;;;;15.85;9.55;;;;;;;;;;5036340;28;20450;-73
2021/09/04 01:57:08;;;;;;;14.88;10.55;;;;;;;;;;5036332;28;20327;-73
2021/09/04 01:59:33;;;;;;;14.38;10.88;;;;;;;;;;5036485;28;20048;-74
2021/09/04 02:01:59;;;;;;;11.52;10.43;;;;;;;;;;5036450;28;20026;-74
2021/09/04 02:04:24;;;;;;;14.88;9.85;;;;;;;;;;5036386;28;20028;-73
2021/09/04 02:06:49;;;;;;;13.15;9.45;;;;;;;;;;5036408;28;20017;-73
2021/09/04 02:09:14;;;;;;;13.47;10.57;;;;;;;;;;5011366;28;20033;-73
2021/09/04 02:11:40;;;;;;;14.82;10.27;;;;;;;;;;5027564;28;20270;-73
2021/09/04 02:14:05;;;;;;;16.10;10.52;;;;;;;;;;5036037;28;20021;-72
2021/09/04 02:16:30;;;;;;;11.37;9.93;;;;;;;;;;5034040;28;20481;-73
2021/09/04 02:18:55;;;;;;;12.52;9.07;;;;;;;;;;5036013;28;20260;-73
2021/09/04 02:21:20;;;;;;;17.50;9.73;;;;;;;;;;5035561;28;20048;-73
2021/09/04 02:23:46;;;;;;;11.27;9.63;;;;;;;;;;5036240;28;20018;-72
2021/09/04 02:26:11;;;;;;;14.27;9.95;;;;;;;;;;5035660;28;20602;-73
2021/09/04 02:28:38;;;;;;;10.13;9.05;;;;;;;;;;5036159;28;20037;-72
2021/09/04 02:31:04;;;;;;;11.32;10.07;;;;;;;;;;5035726;28;20018;-73
2021/09/04 02:33:31;;;;;;;13.23;9.53;;;;;;;;;;5036136;28;20017;-72
2021/09/04 02:35:59;;;;;;;11.18;9.82;;;;;;;;;;5036150;28;20264;-74
2021/09/04 02:38:24;;;;;;;11.30;9.93;;;;;;;;;;5035951;28;20036;-73
2021/09/04 02:40:49;;;;;;;11.27;9.63;;;;;;;;;;5036001;28;20030;-72
2021/09/04 02:43:19;;;;;;;12.03;9.50;;;;;;;;;;5035889;28;20096;-72
2021/09/04 02:45:44;;;;;;;10.93;9.60;;;;;;;;;;5035830;28;20264;-72
2021/09/04 02:48:09;;;;;;;13.55;10.13;;;;;;;;;;5035943;28;20010;-72
2021/09/04 02:50:35;;;;;;;12.60;10.07;;;;;;;;;;5035960;28;20405;-72
2021/09/04 02:53:03;;;;;;;11.77;10.57;;;;;;;;;;5035115;28;20292;-72
2021/09/04 02:55:29;;;;;;;12.70;9.68;;;;;;;;;;5035665;28;20358;-73
2021/09/04 02:57:54;;;;;;;13.10;9.52;;;;;;;;;;5034607;28;20104;-73
2021/09/04 03:00:19;;;;;;;11.03;9.67;;;;;;;;;;5034907;28;20037;-72
2021/09/04 03:02:47;;;;;;;13.88;9.85;;;;;;;;;;5035624;28;20636;-72
2021/09/04 03:05:13;;;;;;;12.27;10.05;;;;;;;;;;5034615;28;20358;-72
2021/09/04 03:07:38;;;;;;;11.18;8.80;;;;;;;;;;5035740;28;20013;-71
2021/09/04 03:10:03;;;;;;;14.23;10.10;;;;;;;;;;5034940;28;20026;-73
2021/09/04 03:12:29;;;;;;;13.52;9.80;;;;;;;;;;5035440;28;20030;-73
2021/09/04 03:14:54;;;;;;;10.68;9.20;;;;;;;;;;5035551;28;20079;-73
2021/09/04 03:17:21;;;;;;;11.53;8.93;;;;;;;;;;5035089;28;21236;-72
2021/09/04 03:19:46;;;;;;;11.40;9.38;;;;;;;;;;5035177;28;20260;-72
2021/09/04 03:22:14;;;;;;;14.02;10.20;;;;;;;;;;5034597;28;20037;-72
2021/09/04 03:24:40;;;;;;;13.35;9.10;;;;;;;;;;5035391;28;20378;-72
2021/09/04 03:27:06;;;;;;;12.93;10.35;;;;;;;;;;5033961;28;20024;-72
2021/09/04 03:29:31;;;;;;;10.13;8.98;;;;;;;;;;5017499;28;20018;-72
2021/09/04 03:31:58;;;;;;;12.40;10.75;;;;;;;;;;5034512;28;20023;-72
2021/09/04 03:34:24;;;;;;;11.00;9.90;;;;;;;;;;5035122;28;20022;-72
2021/09/04 03:36:49;;;;;;;12.43;10.38;;;;;;;;;;5035069;28;20529;-73
2021/09/04 03:39:14;;;;;;;14.47;10.13;;;;;;;;;;5035055;28;20430;-73
2021/09/04 03:41:39;;;;;;;14.55;10.90;;;;;;;;;;5024778;28;20288;-73
2021/09/04 03:44:04;;;;;;;13.10;10.25;;;;;;;;;;5034843;28;20108;-72
2021/09/04 03:46:30;;;;;;;20.77;11.60;;;;;;;;;;5034157;28;20014;-72
2021/09/04 03:48:59;;;;;;;13.87;10.10;;;;;;;;;;5034791;28;20636;-73
2021/09/04 03:51:25;;;;;;;11.52;10.32;;;;;;;;;;5035208;28;20370;-73
2021/09/04 03:53:50;;;;;;;13.32;10.93;;;;;;;;;;5034668;28;20052;-73
2021/09/04 03:56:15;;;;;;;13.10;10.70;;;;;;;;;;5033972;28;20109;-73
2021/09/04 03:58:40;;;;;;;16.50;11.57;;;;;;;;;;5020416;28;20268;-73
2021/09/04 04:01:05;;;;;;;12.37;10.60;;;;;;;;;;5029151;28;20291;-72
2021/09/04 04:03:31;;;;;;;11.77;10.57;;;;;;;;;;5033876;28;20259;-72
2021/09/04 04:05:56;;;;;;;12.30;10.87;;;;;;;;;;5033932;28;20362;-72
2021/09/04 04:08:21;;;;;;;12.75;10.30;;;;;;;;;;5016642;28;20578;-72
2021/09/04 04:10:46;;;;;;;14.37;10.93;;;;;;;;;;5034270;28;20033;-72
2021/09/04 04:13:14;;;;;;;13.67;10.63;;;;;;;;;;5034402;28;20248;-72
2021/09/04 04:15:39;;;;;;;13.52;10.48;;;;;;;;;;5033882;28;20268;-72
2021/09/04 04:18:04;;;;;;;13.55;10.55;;;;;;;;;;5034310;28;20028;-72
2021/09/04 04:20:32;;;;;;;11.88;10.70;;;;;;;;;;5034057;28;20056;-72
2021/09/04 04:22:57;;;;;;;12.07;10.68;;;;;;;;;;5034250;28;20029;-72
2021/09/04 04:25:22;;;;;;;14.85;11.45;;;;;;;;;;5032975;28;20037;-72
2021/09/04 04:27:47;;;;;;;12.27;10.27;;;;;;;;;;5033283;28;20029;-72
2021/09/04 04:30:13;;;;;;;11.80;10.65;;;;;;;;;;5033278;28;20044;-72
2021/09/04 04:32:38;;;;;;;12.10;10.60;;;;;;;;;;5031859;28;20017;-73
2021/09/04 04:35:03;;;;;;;13.73;10.87;;;;;;;;;;5033103;28;20079;-73
2021/09/04 04:37:28;;;;;;;12.70;10.93;;;;;;;;;;5033167;28;20260;-72
2021/09/04 04:39:54;;;;;;;16.25;10.93;;;;;;;;;;5015924;28;20029;-72
2021/09/04 04:42:19;;;;;;;12.47;10.77;;;;;;;;;;5032210;28;20105;-72
2021/09/04 04:44:44;;;;;;;17.42;11.50;;;;;;;;;;5033031;28;20267;-72
2021/09/04 04:47:09;;;;;;;20.20;11.85;;;;;;;;;;5015083;28;20434;-72
2021/09/04 04:49:37;;;;;;;14.02;11.23;;;;;;;;;;5033069;28;20355;-72
2021/09/04 04:52:02;;;;;;;14.82;10.30;;;;;;;;;;5033105;28;20021;-72
2021/09/04 04:54:29;;;;;;;15.52;11.85;;;;;;;;;;5033395;28;20327;-72
2021/09/04 04:56:55;;;;;;;12.95;11.65;;;;;;;;;;5032339;28;20018;-72
2021/09/04 04:59:20;;;;;;;11.35;10.20;;;;;;;;;;5021024;28;20017;-72
2021/09/04 05:01:47;;;;;;;15.57;11.48;;;;;;;;;;5031434;28;20043;-72
2021/09/04 05:04:12;;;;;;;14.15;11.65;;;;;;;;;;5015481;28;20358;-72
2021/09/04 05:06:37;;;;;;;15.77;12.53;;;;;;;;;;5014653;28;20028;-72
2021/09/04 05:09:05;;;;;;;17.20;12.13;;;;;;;;;;5032764;28;20268;-72
2021/09/04 05:11:30;;;;;;;14.25;12.02;;;;;;;;;;5026810;28;20021;-72
2021/09/04 05:13:58;;;;;;;15.90;12.60;;;;;;;;;;5022864;28;20331;-72
2021/09/04 05:16:23;;;;;;;13.55;11.23;;;;;;;;;;5032614;28;20109;-72
2021/09/04 05:18:48;;;;;;;13.20;11.43;;;;;;;;;;5016174;28;20053;-72
2021/09/04 05:21:13;;;;;;;12.77;11.47;;;;;;;;;;5036379;28;20021;-72
2021/09/04 05:23:39;;;;;;;13.25;10.75;;;;;;;;;;5035727;28;20322;-72
2021/09/04 05:26:04;;;;;;;;;;;;;;;;;;4989566;28;1367309;-72
2021/09/04 05:28:29;;;;;;;14.43;11.77;;;;;;;;;;5037543;28;19919;-72
2021/09/04 05:30:54;;;;;;;16.67;12.85;;;;;;;;;;5008741;28;20053;-72
2021/09/04 05:33:19;;;;;;;15.07;11.27;;;;;;;;;;5017585;28;20022;-72
2021/09/04 05:35:45;;;;;;;14.25;12.35;;;;;;;;;;5025635;28;20108;-73
2021/09/04 05:38:10;;;;;;;14.98;11.60;;;;;;;;;;5037399;28;20022;-73
2021/09/04 05:40:35;;;;;;;16.77;11.93;;;;;;;;;;5037407;28;20029;-73
2021/09/04 05:43:03;;;;;;;13.35;11.75;;;;;;;;;;5036827;28;20096;-73
2021/09/04 05:45:28;;;;;;;13.10;11.30;;;;;;;;;;5037059;28;20017;-72
2021/09/04 05:47:53;;;;;;;13.60;11.27;;;;;;;;;;5036120;28;20033;-73
2021/09/04 05:50:20;;;;;;;17.23;10.80;;;;;;;;;;5036810;28;20267;-73
2021/09/04 05:52:46;;;;;;;14.35;12.25;;;;;;;;;;5036902;28;20616;-73
2021/09/04 05:55:11;;;;;;;16.83;10.90;;;;;;;;;;5037069;28;20021;-73
2021/09/04 05:57:36;;;;;;;14.37;11.83;;;;;;;;;;5036446;28;20276;-73
2021/09/04 06:00:02;;;;;;;17.08;11.50;;;;;;;;;;5029559;28;20273;-73
2021/09/04 06:02:27;;;;;;;15.98;13.20;;;;;;;;;;4999421;28;20036;-72
2021/09/04 06:04:52;;;;;;;13.73;11.83;;;;;;;;;;5016731;28;20053;-73
2021/09/04 06:07:17;;;;;;;15.13;12.07;;;;;;;;;;5036598;28;20291;-73
2021/09/04 06:09:43;;;;;;;16.40;12.33;;;;;;;;;;5036681;28;20029;-74
2021/09/04 06:12:10;;;;;;;16.30;12.00;;;;;;;;;;5035865;28;20272;-73
2021/09/04 06:14:35;;;;;;;17.35;12.75;;;;;;;;;;5036674;28;20025;-74
2021/09/04 06:17:01;;;;;;;15.57;13.18;;;;;;;;;;5036623;28;20031;-73
2021/09/04 06:19:26;;;;;;;15.98;12.50;;;;;;;;;;5035963;28;20092;-73
2021/09/04 06:21:51;;;;;;;13.70;12.23;;;;;;;;;;5036570;28;20025;-74
2021/09/04 06:24:16;;;;;;;17.35;12.50;;;;;;;;;;5036509;28;20260;-75
2021/09/04 06:26:42;;;;;;;14.07;12.52;;;;;;;;;;5019516;28;20617;-73
2021/09/04 06:29:07;;;;;;;14.80;13.20;;;;;;;;;;5035914;28;20017;-74
2021/09/04 06:31:35;;;;;;;17.67;14.30;;;;;;;;;;5018624;28;20026;-74
2021/09/04 06:34:03;;;;;;;14.52;12.75;;;;;;;;;;5035894;28;20025;-73
2021/09/04 06:36:30;;;;;;;15.40;13.57;;;;;;;;;;5031508;28;20040;-73
2021/09/04 06:38:55;;;;;;;15.63;12.52;;;;;;;;;;5035922;28;20025;-74
2021/09/04 06:41:23;;;;;;;16.60;13.70;;;;;;;;;;5034642;28;20323;-73
2021/09/04 06:43:48;;;;;;;13.60;12.20;;;;;;;;;;5036210;28;20261;-73
2021/09/04 06:46:13;;;;;;;18.80;11.85;;;;;;;;;;5036325;28;20025;-74
2021/09/04 06:48:38;;;;;;;13.95;11.77;;;;;;;;;;5036456;28;20032;-74
2021/09/04 06:51:04;;;;;;;15.33;11.87;;;;;;;;;;5036118;28;20064;-73
2021/09/04 06:53:29;;;;;;;14.10;11.18;;;;;;;;;;5036276;28;20283;-73
2021/09/04 06:55:54;;;;;;;16.48;11.75;;;;;;;;;;5035635;28;20087;-73
2021/09/04 06:58:21;;;;;;;13.73;11.70;;;;;;;;;;5035965;28;20452;-73
2021/09/04 07:00:49;;;;;;;14.80;12.45;;;;;;;;;;5035312;28;20318;-73
2021/09/04 07:03:16;;;;;;;13.68;12.27;;;;;;;;;;5036238;28;20052;-73
2021/09/04 07:05:42;;;;;;;14.48;13.07;;;;;;;;;;5034927;28;20104;-74
2021/09/04 07:08:07;;;;;;;26.67;19.65;;;;;;;;;;5035924;28;20092;-74
2021/09/04 07:10:32;;;;;;;18.40;16.15;;;;;;;;;;5035426;28;20075;-74
2021/09/04 07:12:57;;;;;;;16.95;13.40;;;;;;;;;;5036338;28;20029;-76
2021/09/04 07:15:23;;;;;;;14.73;12.25;;;;;;;;;;5035210;28;20160;-76
2021/09/04 07:17:48;;;;;;;16.02;11.93;;;;;;;;;;5035858;28;20022;-76
2021/09/04 07:20:15;;;;;;;19.10;12.60;;;;;;;;;;5035831;28;20453;-76
2021/09/04 07:22:41;;;;;;;17.13;14.50;;;;;;;;;;5035784;28;20280;-75
2021/09/04 07:25:06;;;;;;;14.15;12.48;;;;;;;;;;5034773;28;20044;-75
2021/09/04 07:27:31;;;;;;;13.13;11.80;;;;;;;;;;5035578;28;20013;-75
2021/09/04 07:29:57;;;;;;;14.80;12.30;;;;;;;;;;5035533;28;20144;-75
2021/09/04 07:32:25;;;;;;;12.67;11.40;;;;;;;;;;5015969;28;20601;-75
2021/09/04 07:34:50;;;;;;;14.25;12.50;;;;;;;;;;5035370;28;20653;-75
2021/09/04 07:37:15;;;;;;;25.45;15.88;;;;;;;;;;5034508;28;20018;-75
2021/09/04 07:39:40;;;;;;;15.87;11.40;;;;;;;;;;5035407;28;20055;-75
2021/09/04 07:42:05;;;;;;;15.60;12.07;;;;;;;;;;5017063;28;20276;-75
2021/09/04 07:44:31;;;;;;;13.35;12.00;;;;;;;;;;5035482;28;20017;-75
2021/09/04 07:46:56;;;;;;;16.93;14.23;;;;;;;;;;5034477;28;20026;-75
2021/09/04 07:49:23;;;;;;;17.10;13.75;;;;;;;;;;5035241;28;20272;-75
2021/09/04 07:51:51;;;;;;;14.75;13.13;;;;;;;;;;5034622;28;20104;-75
2021/09/04 07:54:16;;;;;;;15.85;13.45;;;;;;;;;;5035221;28;20021;-75
2021/09/04 07:56:44;;;;;;;15.90;12.80;;;;;;;;;;5034333;28;20139;-75
2021/09/04 07:59:09;;;;;;;14.88;12.82;;;;;;;;;;5034534;28;20268;-75
2021/09/04 08:01:34;;;;;;;17.53;11.83;;;;;;;;;;5034343;28;20018;-75
2021/09/04 08:04:02;;;;;;;14.05;11.45;;;;;;;;;;5034775;28;20555;-75
2021/09/04 08:06:31;;;;;;;15.50;12.80;;;;;;;;;;5034941;28;20028;-75
2021/09/04 08:08:57;;;;;;;13.30;11.85;;;;;;;;;;5034420;28;20401;-74
2021/09/04 08:11:22;;;;;;;14.73;11.80;;;;;;;;;;5034055;28;20025;-74
2021/09/04 08:13:47;;;;;;;13.00;11.63;;;;;;;;;;5034536;28;20318;-74
2021/09/04 08:16:15;;;;;;;13.90;11.73;;;;;;;;;;5034007;28;20260;-74
2021/09/04 08:18:40;;;;;;;15.07;12.45;;;;;;;;;;5034526;28;20284;-73
2021/09/04 08:21:05;;;;;;;13.33;11.93;;;;;;;;;;5034476;28;20068;-73
2021/09/04 08:23:30;;;;;;;15.05;11.88;;;;;;;;;;5034661;28;20339;-73
2021/09/04 08:25:56;;;;;;;17.27;12.43;;;;;;;;;;5033741;28;20045;-73
2021/09/04 08:28:21;;;;;;;14.63;10.70;;;;;;;;;;5034193;28;20252;-74
2021/09/04 08:30:49;;;;;;;15.93;10.67;;;;;;;;;;5016895;28;20267;-73
2021/09/04 08:33:14;;;;;;;12.77;10.85;;;;;;;;;;5034035;28;20301;-73
2021/09/04 08:35:39;;;;;;;13.02;10.93;;;;;;;;;;5034059;28;20045;-73
2021/09/04 08:38:07;;;;;;;11.67;10.47;;;;;;;;;;5033741;28;20096;-73
2021/09/04 08:40:36;;;;;;;11.93;10.65;;;;;;;;;;5034422;28;20256;-73
2021/09/04 08:43:01;;;;;;;11.35;9.82;;;;;;;;;;5034325;28;20481;-73
2021/09/04 08:45:26;;;;;;;12.27;9.68;;;;;;;;;;5033976;28;20113;-73
2021/09/04 08:47:52;;;;;;;13.13;10.20;;;;;;;;;;5034250;28;20467;-73
2021/09/04 08:50:18;;;;;;;13.02;9.85;;;;;;;;;;5034106;28;20103;-73
2021/09/04 08:52:43;;;;;;;14.82;10.70;;;;;;;;;;5034139;28;20028;-72
2021/09/04 08:55:08;;;;;;;11.43;9.68;;;;;;;;;;5033295;28;20017;-73
2021/09/04 08:57:36;;;;;;;10.55;9.40;;;;;;;;;;5034262;28;20036;-73
2021/09/04 09:00:01;;;;;;;13.88;9.55;;;;;;;;;;5033448;28;20433;-73
2021/09/04 09:02:27;;;;;;;15.35;9.63;;;;;;;;;;5033765;28;20048;-73
2021/09/04 09:05:04;;;;;;;13.40;10.07;;;;;;;;;;5033674;28;20018;-73
2021/09/04 09:07:49;;;;;;;12.57;9.50;;;;;;;;;;5016613;28;20028;-73
2021/09/04 09:10:20;;;;;;;10.73;9.60;;;;;;;;;;5032654;28;20040;-73
2021/09/04 09:12:46;;;;;;;10.60;9.15;;;;;;;;;;5014256;28;20018;-73
2021/09/04 09:15:18;;;;;;;13.63;9.48;;;;;;;;;;5013915;28;20055;-73
2021/09/04 09:17:55;;;;;;;11.63;9.65;;;;;;;;;;5014314;28;20029;-73
2021/09/04 09:20:22;;;;;;;9.95;8.95;;;;;;;;;;5014401;28;20454;-73
2021/09/04 09:22:52;;;;;;;12.57;9.07;;;;;;;;;;5013920;28;20030;-74
2021/09/04 09:25:19;;;;;;;10.25;9.02;;;;;;;;;;5015086;28;20411;-73
2021/09/04 09:27:56;;;;;;;16.38;9.35;;;;;;;;;;5032908;28;20354;-73
2021/09/04 09:30:28;;;;;;;11.00;9.32;;;;;;;;;;5033264;28;20021;-74
2021/09/04 09:32:56;;;;;;;10.43;9.38;;;;;;;;;;5033972;28;20029;-73
2021/09/04 09:35:36;;;;;;;11.05;9.00;;;;;;;;;;5032841;28;20025;-73
2021/09/04 09:38:02;;;;;;;10.68;9.50;;;;;;;;;;5033911;28;20025;-74
2021/09/04 09:40:29;;;;;;;10.93;9.73;;;;;;;;;;5033603;28;20025;-73
2021/09/04 09:42:54;;;;;;;14.43;9.18;;;;;;;;;;5033040;28;20508;-73
2021/09/04 09:45:19;;;;;;;10.30;9.23;;;;;;;;;;5033675;28;20026;-73
2021/09/04 09:47:53;;;;;;;10.30;9.20;;;;;;;;;;5033103;28;20280;-74
2021/09/04 09:50:18;;;;;;;10.55;9.45;;;;;;;;;;5033956;28;20064;-74
2021/09/04 09:52:44;;;;;;;11.55;9.65;;;;;;;;;;5033586;28;20366;-73
2021/09/04 09:55:10;;;;;;;9.95;8.95;;;;;;;;;;5033081;28;20030;-73
2021/09/04 09:57:37;;;;;;;13.77;9.85;;;;;;;;;;5033478;28;20327;-74
2021/09/04 10:00:03;;;;;;;12.85;10.02;;;;;;;;;;5032925;28;20052;-73
2021/09/04 10:02:28;;;;;;;11.98;9.63;;;;;;;;;;5032604;28;20119;-74
2021/09/04 10:04:55;;;;;;;10.75;9.75;;;;;;;;;;5033770;28;20021;-74
2021/09/04 10:07:22;;;;;;;13.57;10.15;;;;;;;;;;5037587;28;20021;-75
2021/09/04 10:09:50;;;;;;;11.68;9.75;;;;;;;;;;5037165;28;20014;-74
2021/09/04 10:12:15;;;;;;;11.88;10.30;;;;;;;;;;5036723;28;20052;-74
2021/09/04 10:14:41;;;;;;;11.73;9.95;;;;;;;;;;5017321;28;20119;-74
2021/09/04 10:17:06;;;;;;;10.18;9.10;;;;;;;;;;5017204;28;20036;-74
2021/09/04 10:19:33;;;;;;;13.23;10.07;;;;;;;;;;4999910;28;20041;-74
2021/09/04 10:22:01;;;;;;;10.82;9.45;;;;;;;;;;5023386;28;20021;-74
2021/09/04 10:24:42;;;;;;;10.43;9.38;;;;;;;;;;5036802;28;20107;-73
2021/09/04 10:27:07;;;;;;;10.57;9.57;;;;;;;;;;5036313;28;20022;-74
2021/09/04 10:29:39;;;;;;;10.53;9.50;;;;;;;;;;5036764;28;20076;-73
2021/09/04 10:32:04;;;;;;;10.27;8.32;;;;;;;;;;5018812;28;20291;-74
2021/09/04 10:34:31;;;;;;;12.73;8.75;;;;;;;;;;5036508;28;20025;-74
2021/09/04 10:37:02;;;;;;;10.77;9.77;;;;;;;;;;5035965;28;20641;-74
2021/09/04 10:39:46;;;;;;;8.18;6.75;;;;;;;;;;5035760;28;20104;-74
2021/09/04 10:42:16;;;;;;;7.65;6.25;;;;;;;;;;5036370;28;20466;-74
2021/09/04 10:44:48;;;;;;;8.15;7.35;;;;;;;;;;5036443;28;20410;-76
2021/09/04 10:47:14;;;;;;;7.03;6.32;;;;;;;;;;5035937;28;20441;-75
2021/09/04 10:49:44;;;;;;;6.55;5.95;;;;;;;;;;5036391;28;20029;-74
2021/09/04 10:52:09;;;;;;;9.25;6.40;;;;;;;;;;5018814;28;20022;-75
2021/09/04 10:54:55;;;;;;;7.00;6.30;;;;;;;;;;5018553;28;20095;-74
2021/09/04 10:57:20;;;;;;;10.07;6.07;;;;;;;;;;5035787;28;20682;-74
2021/09/04 10:59:56;;;;;;;7.50;6.80;;;;;;;;;;5035236;28;20112;-75
2021/09/04 11:02:24;;;;;;;7.93;5.95;;;;;;;;;;5035101;28;20022;-74
2021/09/04 11:04:56;;;;;;;6.30;5.70;;;;;;;;;;5036038;28;20485;-75
2021/09/04 11:07:40;;;;;;;8.48;7.45;;;;;;;;;;5035195;28;20051;-75
2021/09/04 11:10:23;;;;;;;8.85;6.43;;;;;;;;;;5036182;28;20032;-75
2021/09/04 11:13:17;;;;;;;8.20;7.35;;;;;;;;;;5017993;28;20063;-75
2021/09/04 11:15:45;;;;;;;7.88;5.68;;;;;;;;;;5020110;28;20033;-75
2021/09/04 11:18:16;;;;;;;7.00;6.20;;;;;;;;;;5035306;28;20109;-75
2021/09/04 11:20:45;;;;;;;6.93;6.22;;;;;;;;;;5035443;28;20060;-75
2021/09/04 11:23:21;;;;;;;9.75;6.03;;;;;;;;;;5035692;28;20045;-75
2021/09/04 11:25:49;;;;;;;8.90;5.63;;;;;;;;;;5034924;28;20122;-75
2021/09/04 11:28:14;;;;;;;8.50;5.80;;;;;;;;;;5034712;28;20025;-74
2021/09/04 11:30:48;;;;;;;6.10;5.50;;;;;;;;;;5034882;28;20319;-75
2021/09/04 11:33:16;;;;;;;6.75;6.07;;;;;;;;;;5035106;28;20025;-75
2021/09/04 11:35:44;;;;;;;8.30;5.95;;;;;;;;;;5034155;28;20029;-75
2021/09/04 11:38:09;;;;;;;6.63;5.60;;;;;;;;;;5035453;28;20026;-74
2021/09/04 11:40:37;;;;;;;6.33;5.17;;;;;;;;;;5035256;28;20025;-75
2021/09/04 11:43:04;;;;;;;7.13;5.18;;;;;;;;;;5034668;28;20044;-75
2021/09/04 11:45:33;;;;;;;6.53;5.78;;;;;;;;;;5035284;28;20013;-75
2021/09/04 11:48:05;;;;;;;5.30;4.70;;;;;;;;;;5034739;28;20036;-75
2021/09/04 11:50:34;;;;;;;6.57;5.00;;;;;;;;;;5035218;28;20088;-75
2021/09/04 11:53:00;;;;;;;6.60;5.80;;;;;;;;;;5034756;28;20029;-75
2021/09/04 11:55:25;;;;;;;6.40;5.10;;;;;;;;;;5034960;28;20366;-75
2021/09/04 11:57:56;;;;;;;6.63;4.83;;;;;;;;;;5023286;28;20079;-75
2021/09/04 12:00:22;;;;;;;5.65;5.15;;;;;;;;;;5034303;28;20018;-75
2021/09/04 12:02:52;;;;;;;5.85;5.20;;;;;;;;;;5034774;28;20022;-75
2021/09/04 12:05:18;;;;;;;5.93;5.43;;;;;;;;;;5035137;28;20175;-74
2021/09/04 12:07:48;;;;;;;6.05;5.50;;;;;;;;;;5029387;28;20017;-74
2021/09/04 12:10:15;;;;;;;8.35;5.35;;;;;;;;;;5015244;28;20362;-75
2021/09/04 12:12:41;;;;;;;6.75;5.70;;;;;;;;;;5014978;28;20030;-75
2021/09/04 12:15:09;;;;;;;6.40;5.60;;;;;;;;;;5030973;28;20457;-75
2021/09/04 12:17:34;;;;;;;6.35;5.50;;;;;;;;;;5034714;28;20349;-75
2021/09/04 12:20:10;;;;;;;6.60;5.97;;;;;;;;;;5035106;28;20025;-74
2021/09/04 12:22:35;;;;;;;5.80;5.20;;;;;;;;;;5033848;28;20029;-74
2021/09/04 12:25:00;;;;;;;9.90;5.37;;;;;;;;;;5034397;28;20362;-75
2021/09/04 12:27:38;;;;;;;7.43;6.23;;;;;;;;;;5023603;28;20376;-75
2021/09/04 12:30:03;;;;;;;6.68;6.07;;;;;;;;;;5015038;28;20574;-75
2021/09/04 12:32:32;;;;;;;6.38;5.82;;;;;;;;;;5014751;28;20022;-75
2021/09/04 12:34:58;;;;;;;8.43;4.95;;;;;;;;;;5014879;28;20446;-75
2021/09/04 12:37:26;;;;;;;5.93;5.43;;;;;;;;;;5032756;28;20032;-75
2021/09/04 12:39:52;;;;;;;7.00;5.50;;;;;;;;;;5016811;28;20328;-74
2021/09/04 12:42:17;;;;;;;6.75;5.00;;;;;;;;;;5022169;28;20040;-74
2021/09/04 12:44:48;;;;;;;6.10;5.60;;;;;;;;;;5014377;28;20018;-74
2021/09/04 12:47:14;;;;;;;6.97;5.28;;;;;;;;;;5014673;28;20105;-74
2021/09/04 12:49:50;;;;;;;6.72;6.10;;;;;;;;;;5021032;28;20311;-74
2021/09/04 12:52:21;;;;;;;9.07;6.80;;;;;;;;;;5016397;28;20445;-74
2021/09/04 12:54:55;;;;;;;7.00;5.40;;;;;;;;;;5033569;28;20037;-74
2021/09/04 12:57:24;;;;;;;6.20;5.70;;;;;;;;;;5033260;28;20022;-74
2021/09/04 13:00:06;;;;;;;10.00;6.53;;;;;;;;;;5033657;28;20032;-74
2021/09/04 13:02:36;;;;;;;7.60;6.25;;;;;;;;;;5033099;28;20021;-74
2021/09/04 13:05:03;;;;;;;8.18;6.88;;;;;;;;;;5034267;28;20075;-74
2021/09/04 13:07:37;;;;;;;8.48;6.82;;;;;;;;;;5032092;28;20014;-74
2021/09/04 13:10:02;;;;;;;7.00;6.40;;;;;;;;;;5033588;28;20319;-74
2021/09/04 13:12:27;;;;;;;7.43;6.68;;;;;;;;;;5016619;28;20031;-74
2021/09/04 13:14:55;;;;;;;8.37;7.60;;;;;;;;;;5033777;28;20022;-74
2021/09/04 13:17:20;;;;;;;8.30;7.60;;;;;;;;;;5033398;28;20021;-74
2021/09/04 13:19:47;;;;;;;7.43;6.73;;;;;;;;;;5033981;28;20357;-74
2021/09/04 13:22:15;;;;;;;9.52;6.60;;;;;;;;;;5014740;28;20029;-74
2021/09/04 13:24:41;;;;;;;10.35;6.78;;;;;;;;;;5033207;28;20050;-74
2021/09/04 13:27:07;;;;;;;8.50;6.95;;;;;;;;;;5032480;28;20017;-75
2021/09/04 13:29:34;;;;;;;7.22;6.50;;;;;;;;;;5033686;28;20453;-74
2021/09/04 13:32:02;;;;;;;9.05;7.57;;;;;;;;;;5019220;28;20064;-74
2021/09/04 13:34:28;;;;;;;9.85;7.20;;;;;;;;;;5033238;28;20412;-74
2021/09/04 13:36:53;;;;;;;8.13;7.33;;;;;;;;;;5033401;28;20060;-74
2021/09/04 13:39:19;;;;;;;9.55;7.45;;;;;;;;;;5033220;28;20056;-74
2021/09/04 13:41:44;;;;;;;7.82;7.10;;;;;;;;;;5032062;28;20390;-74
2021/09/04 13:44:09;;;;;;;8.10;7.30;;;;;;;;;;5031131;28;20529;-74
2021/09/04 13:46:37;;;;;;;13.10;7.57;;;;;;;;;;5033064;28;20079;-74
2021/09/04 13:49:02;;;;;;;10.13;7.65;;;;;;;;;;5037432;28;20260;-74
2021/09/04 13:51:28;;;;;;;8.10;7.30;;;;;;;;;;5036732;28;20427;-74
2021/09/04 13:53:53;;;;;;;11.03;7.50;;;;;;;;;;5037322;28;20068;-74
2021/09/04 13:56:20;;;;;;;8.50;7.20;;;;;;;;;;5036795;28;20283;-75
2021/09/04 13:58:45;;;;;;;9.90;7.10;;;;;;;;;;5037263;28;20032;-74
2021/09/04 14:01:15;;;;;;;7.97;7.20;;;;;;;;;;5033862;28;20026;-74
2021/09/04 14:03:41;;;;;;;8.38;7.32;;;;;;;;;;5000335;28;20025;-74
2021/09/04 14:06:08;;;;;;;8.27;7.57;;;;;;;;;;5017302;28;20465;-74
2021/09/04 14:08:33;;;;;;;9.35;6.47;;;;;;;;;;5032189;28;20624;-74
2021/09/04 14:10:59;;;;;;;9.48;7.50;;;;;;;;;;5036151;28;20025;-74
2021/09/04 14:13:26;;;;;;;8.17;7.37;;;;;;;;;;5037169;28;20072;-74
2021/09/04 14:15:51;;;;;;;7.68;7.07;;;;;;;;;;5037061;28;20031;-74
2021/09/04 14:18:16;;;;;;;11.85;6.63;;;;;;;;;;5036810;28;20108;-75
2021/09/04 14:20:42;;;;;;;7.53;6.13;;;;;;;;;;5036984;28;20027;-74
2021/09/04 14:23:07;;;;;;;5.88;5.28;;;;;;;;;;5018169;28;20366;-74
2021/09/04 14:25:32;;;;;;;6.60;5.40;;;;;;;;;;5016672;28;20467;-75
2021/09/04 14:27:58;;;;;;;5.53;4.97;;;;;;;;;;5017167;28;20018;-74